createdAt,value
2023-02-21T00:25:19.262Z,100236.41
2023-02-21T00:49:51.160Z,100218.22
2023-02-21T00:53:05.990Z,100212.88
2023-02-21T00:56:13.116Z,100223.16
2023-02-21T00:59:28.089Z,100217.03
2023-02-21T01:06:13.910Z,100209.00
2023-02-21T01:09:10.161Z,100211.44
2023-02-21T01:12:31.358Z,100242.47
2023-02-21T01:15:42.569Z,100208.63
2023-02-21T01:18:46.367Z,100188.38
2023-02-21T01:21:42.930Z,100207.19
2023-02-21T01:28:21.093Z,100204.44
2023-02-21T01:32:20.161Z,100206.25
2023-02-21T01:35:20.669Z,100213.91
2023-02-21T01:38:22.151Z,100191.72
2023-02-21T01:48:44.811Z,100182.53
2023-02-21T02:06:08.093Z,100194.06
2023-02-21T02:27:32.277Z,100157.34
2023-02-21T02:40:26.271Z,100185.34
2023-02-21T02:46:42.347Z,100135.69
2023-02-21T02:52:34.198Z,100171.63
2023-02-21T02:56:21.156Z,100153.09
2023-02-21T03:06:37.570Z,100164.25
2023-02-21T03:22:58.957Z,100196.69
2023-02-21T03:25:30.025Z,100186.78
2023-02-21T03:31:43.924Z,100152.69
2023-02-21T03:34:31.651Z,100151.09
2023-02-21T03:37:35.719Z,100163.66
2023-02-21T03:50:05.690Z,100170.56
2023-02-21T05:36:13.539Z,100221.69
2023-02-21T05:56:16.513Z,100253.63
2023-02-21T05:58:45.914Z,100243.44
2023-02-21T06:01:13.439Z,100247.59
2023-02-21T06:03:40.400Z,100243.59
2023-02-21T06:06:07.173Z,100260.72
2023-02-21T06:08:42.539Z,100259.28
2023-02-21T06:11:09.165Z,100262.91
2023-02-21T06:13:35.808Z,100267.44
2023-02-21T06:16:02.512Z,100277.09
2023-02-21T06:18:40.461Z,100277.28
2023-02-21T06:21:15.406Z,100283.06
2023-02-21T06:24:06.255Z,100284.69
2023-02-21T06:27:15.258Z,100283.72
2023-02-21T06:29:43.147Z,100289.00
2023-02-21T06:32:09.996Z,100296.22
2023-02-21T06:34:36.927Z,100296.22
2023-02-21T06:37:03.852Z,100300.94
2023-02-21T06:48:15.821Z,100317.47
2023-02-21T07:05:16.151Z,100345.75
2023-02-21T07:11:13.258Z,100348.38
2023-02-21T07:13:40.311Z,100352.75
2023-02-21T07:16:07.242Z,100351.91
2023-02-21T07:18:34.472Z,100357.00
2023-02-21T07:21:01.205Z,100363.34
2023-02-21T07:23:28.053Z,100371.28
2023-02-21T07:25:54.720Z,100376.78
2023-02-21T07:28:21.417Z,100374.88
2023-02-21T07:30:48.467Z,100379.44
2023-02-21T07:33:15.224Z,100374.63
2023-02-21T07:35:41.941Z,100389.72
2023-02-21T07:38:08.780Z,100378.03
2023-02-21T07:40:35.465Z,100381.53
2023-02-21T07:43:02.619Z,100382.75
2023-02-21T08:06:18.356Z,100391.97
2023-02-21T08:09:32.256Z,100404.38
2023-02-21T08:20:19.799Z,100419.50
2023-02-21T08:22:58.885Z,100418.03
2023-02-21T08:25:57.549Z,100429.38
2023-02-21T08:28:32.649Z,100445.94
2023-02-21T08:31:02.399Z,100443.78
2023-02-21T08:33:31.732Z,100432.34
2023-02-21T08:36:01.258Z,100437.72
2023-02-21T08:39:03.014Z,100441.63
2023-02-21T08:41:48.971Z,100438.47
2023-02-21T08:44:18.820Z,100438.13
2023-02-21T08:46:50.724Z,100433.66
2023-02-21T08:49:17.817Z,100454.59
2023-02-21T08:51:47.690Z,100458.78
2023-02-21T08:54:14.397Z,100451.50
2023-02-21T08:56:43.601Z,100448.09
2023-02-21T09:03:41.149Z,100453.22
2023-02-21T09:06:12.045Z,100470.63
2023-02-21T09:08:48.223Z,100466.09
2023-02-21T09:12:02.396Z,100465.81
2023-02-21T09:14:42.709Z,100470.94
2023-02-21T09:17:22.128Z,100471.72
2023-02-21T09:19:52.805Z,100460.06
2023-02-21T09:22:20.789Z,100469.53
2023-02-21T09:24:47.830Z,100473.31
2023-02-21T09:27:20.819Z,100477.50
2023-02-21T09:29:47.739Z,100479.47
2023-02-21T09:32:24.395Z,100483.72
2023-02-21T09:35:02.855Z,100481.81
2023-02-21T09:38:04.389Z,100486.28
2023-02-21T10:06:25.412Z,100513.56
2023-02-21T10:14:14.266Z,100523.94
2023-02-21T10:26:15.725Z,100565.50
2023-02-21T10:30:28.430Z,100534.06
2023-02-21T10:56:15.571Z,100557.00
2023-02-21T10:58:49.213Z,100545.31
2023-02-21T11:01:30.488Z,100557.00
2023-02-21T11:04:39.317Z,100543.63
2023-02-21T11:07:25.579Z,100550.63
2023-02-21T11:13:36.314Z,100545.63
2023-02-21T11:16:23.316Z,100537.78
2023-02-21T11:34:37.971Z,100531.78
2023-02-21T11:51:55.204Z,100552.13
2023-02-21T12:01:29.988Z,100540.97
2023-02-21T12:04:30.953Z,100548.81
2023-02-21T12:07:07.480Z,100547.25
2023-02-21T12:09:55.390Z,100545.50
2023-02-21T12:12:46.064Z,100550.03
2023-02-21T12:16:02.391Z,100542.47
2023-02-21T12:18:56.424Z,100545.75
2023-02-21T12:21:34.824Z,100550.44
2023-02-21T12:24:40.643Z,100546.44
2023-02-21T12:27:21.787Z,100539.91
2023-02-21T12:30:17.723Z,100544.53
2023-02-21T12:32:53.233Z,100546.97
2023-02-21T12:35:49.573Z,100545.28
2023-02-21T12:38:42.193Z,100545.22
2023-02-21T12:41:28.647Z,100543.16
2023-02-21T12:44:13.765Z,100557.34
2023-02-21T12:47:00.500Z,100553.44
2023-02-21T12:49:46.197Z,100556.09
2023-02-21T12:52:14.830Z,100540.56
2023-02-21T12:54:46.924Z,100543.59
2023-02-21T12:57:19.255Z,100540.81
2023-02-21T13:00:25.096Z,100547.50
2023-02-21T13:03:20.059Z,100542.22
2023-02-21T13:05:53.173Z,100559.63
2023-02-21T13:12:00.116Z,100554.91
2023-02-21T13:15:07.877Z,100545.53
2023-02-21T13:17:44.528Z,100554.63
2023-02-21T13:20:20.197Z,100549.03
2023-02-21T13:23:10.268Z,100548.28
2023-02-21T13:26:02.686Z,100563.66
2023-02-21T13:28:30.317Z,100554.16
2023-02-21T13:31:15.197Z,100559.84
2023-02-21T13:34:15.179Z,100556.44
2023-02-21T13:36:44.437Z,100552.53
2023-02-21T13:45:53.002Z,100552.53
2023-02-21T13:48:58.508Z,100553.19
2023-02-21T13:51:55.352Z,100556.47
2023-02-21T13:54:54.550Z,100562.31
2023-02-21T13:57:33.445Z,100565.59
2023-02-21T14:00:26.116Z,100547.41
2023-02-21T14:03:36.869Z,100552.78
2023-02-21T14:06:12.452Z,100549.88
2023-02-21T14:08:53.083Z,100557.53
2023-02-21T14:11:23.922Z,100547.41
2023-02-21T14:13:57.845Z,100549.31
2023-02-21T14:17:14.843Z,100550.81
2023-02-21T14:19:41.613Z,100564.84
2023-02-21T14:22:27.234Z,100558.13
2023-02-21T14:25:27.914Z,100558.25
2023-02-21T14:28:20.102Z,100564.31
2023-02-21T14:35:52.078Z,100552.25
2023-02-21T14:38:29.607Z,100540.91
2023-02-21T14:45:39.340Z,100562.41
2023-02-21T14:48:56.255Z,100560.19
2023-02-21T14:51:54.562Z,100556.56
2023-02-21T14:54:49.958Z,100560.56
2023-02-21T14:57:45.816Z,100575.88
2023-02-21T15:00:15.644Z,100568.13
2023-02-21T15:02:49.727Z,100567.72
2023-02-21T15:05:21.809Z,100564.19
2023-02-21T15:07:48.521Z,100570.34
2023-02-21T15:10:24.745Z,100576.59
2023-02-21T15:13:27.902Z,100586.25
2023-02-21T15:16:03.385Z,100585.59
2023-02-21T15:18:34.989Z,100581.72
2023-02-21T15:21:04.593Z,100591.28
2023-02-21T15:23:31.967Z,100589.56
2023-02-21T15:26:09.529Z,100584.56
2023-02-21T15:28:36.334Z,100596.09
2023-02-21T15:31:10.739Z,100590.19
2023-02-21T15:33:42.260Z,100593.78
2023-02-21T15:36:17.104Z,100597.75
2023-02-21T15:38:48.805Z,100595.94
2023-02-21T15:48:56.639Z,100605.34
2023-02-21T15:58:25.198Z,100613.66
2023-02-21T16:01:10.888Z,100615.28
2023-02-21T16:03:48.459Z,100609.03
2023-02-21T16:06:43.981Z,100608.19
2023-02-21T16:09:29.701Z,100621.69
2023-02-21T16:12:20.611Z,100625.97
2023-02-21T16:14:59.301Z,100616.13
2023-02-21T16:32:14.671Z,100634.69
2023-02-21T16:34:44.496Z,100644.44
2023-02-21T16:40:57.444Z,100654.84
2023-02-21T16:43:39.678Z,100657.22
2023-02-21T16:46:31.325Z,100661.06
2023-02-21T16:49:12.267Z,100656.78
2023-02-21T16:51:59.475Z,100670.81
2023-02-21T16:55:19.416Z,100663.09
2023-02-21T16:58:01.264Z,100674.88
2023-02-21T17:00:31.164Z,100675.72
2023-02-21T17:10:40.980Z,100684.59
2023-02-21T17:13:45.140Z,100676.88
2023-02-21T17:16:35.177Z,100680.16
2023-02-21T17:19:02.180Z,100678.84
2023-02-21T17:21:35.862Z,100697.38
2023-02-21T17:24:05.671Z,100691.41
2023-02-21T17:26:49.236Z,100701.03
2023-02-21T17:36:33.201Z,100698.22
2023-02-21T17:39:03.379Z,100699.72
2023-02-21T17:41:30.278Z,100708.81
2023-02-21T17:43:57.094Z,100709.53
2023-02-21T17:46:26.566Z,100708.13
2023-02-21T17:48:53.308Z,100713.72
2023-02-21T17:51:25.221Z,100719.56
2023-02-21T17:53:52.164Z,100724.22
2023-02-21T17:56:24.837Z,100726.69
2023-02-21T18:07:02.597Z,100732.47
2023-02-21T18:19:49.748Z,100743.84
2023-02-21T18:22:17.942Z,100746.66
2023-02-21T18:24:44.676Z,100745.03
2023-02-21T18:27:13.880Z,100735.63
2023-02-21T18:29:43.685Z,100742.94
2023-02-21T18:32:26.168Z,100749.53
2023-02-21T18:34:53.773Z,100747.22
2023-02-21T18:37:20.948Z,100748.50
2023-02-21T18:40:03.650Z,100751.31
2023-02-21T18:42:30.629Z,100741.03
2023-02-21T18:44:59.125Z,100757.16
2023-02-21T18:48:11.381Z,100762.91
2023-02-21T18:50:46.820Z,100755.84
2023-02-21T18:53:43.919Z,100756.41
2023-02-21T19:00:16.087Z,100756.25
2023-02-21T19:02:46.096Z,100741.38
2023-02-21T19:05:45.782Z,100751.41
2023-02-21T19:08:24.581Z,100759.06
2023-02-21T19:11:26.091Z,100765.81
2023-02-21T19:13:56.069Z,100762.91
2023-02-21T19:16:28.528Z,100761.53
2023-02-21T19:18:59.931Z,100761.25
2023-02-21T19:21:27.161Z,100775.41
2023-02-21T19:23:54.168Z,100767.16
2023-02-21T19:26:20.914Z,100767.34
2023-02-21T22:32:57.856Z,100849.69
2023-02-21T22:37:38.492Z,100839.25
2023-02-21T22:54:41.271Z,100852.59
2023-02-21T23:21:43.185Z,100848.28
2023-02-21T23:28:29.353Z,100842.03
2023-02-21T23:31:50.889Z,100847.56
2023-02-21T23:34:54.618Z,100846.00
2023-02-21T23:37:40.064Z,100837.25
2023-02-21T23:44:16.772Z,100851.84
